Time;durP1;ratioP1;P1;durP2;ratioP2;P2;SDS_P1;SDS_P2;PMS_P1;PMS_P2;Temp;Humidity;BMP_temperature;BMP_pressure;BME280_temperature;BME280_humidity;BME280_pressure;Samples;Min_cycle;Max_cycle;Signal;HPM_P1;HPM_P2
2022/09/25 00:01:21;;;;;;;3.35;1.90;;;12.50;99.90;;;11.78;100.00;101322.44;5096943;23;20069;-73
2022/09/25 00:03:25;;;;;;;6.93;2.30;;;12.60;99.90;;;11.71;100.00;101317.91;5096702;23;20458;-73
2022/09/25 00:05:26;;;;;;;3.40;2.00;;;12.60;99.90;;;11.71;100.00;101312.63;5072900;23;20085;-74
2022/09/25 00:07:27;;;;;;;3.40;2.20;;;12.50;99.90;;;11.72;100.00;101315.09;5098234;23;20056;-73
2022/09/25 00:09:27;;;;;;;4.97;2.20;;;12.50;99.90;;;11.69;100.00;101320.66;5098271;23;20002;-73
2022/09/25 00:11:32;;;;;;;6.28;2.03;;;12.50;99.90;;;11.67;100.00;101317.34;5098230;23;20002;-73
2022/09/25 00:13:33;;;;;;;;;;;12.50;99.90;;;11.61;100.00;101305.56;5072775;23;20010;-73
2022/09/25 00:15:34;;;;;;;3.15;2.10;;;12.50;99.90;;;11.62;100.00;101316.94;5072315;23;19948;-73
2022/09/25 00:17:35;;;;;;;3.92;2.47;;;12.50;99.90;;;11.59;100.00;101312.78;5099222;23;20009;-73
2022/09/25 00:19:51;;;;;;;3.90;2.10;;;12.40;99.90;;;11.62;100.00;101319.56;5074050;23;20370;-73
2022/09/25 00:21:52;;;;;;;3.35;2.08;;;12.40;99.90;;;11.68;100.00;101325.09;5077239;23;20037;-74
2022/09/25 00:23:53;;;;;;;4.60;2.50;;;12.40;99.90;;;11.61;100.00;101323.22;5099817;23;20009;-74
2022/09/25 00:25:55;;;;;;;4.97;2.22;;;12.40;99.90;;;11.60;100.00;101325.03;5099730;23;20002;-73
2022/09/25 00:27:55;;;;;;;4.10;2.03;;;12.40;99.90;;;11.58;100.00;101313.78;5073534;23;20010;-74
2022/09/25 00:29:58;;;;;;;4.32;2.53;;;12.40;99.90;;;11.61;100.00;101325.84;5099506;23;20005;-74
2022/09/25 00:31:59;;;;;;;6.05;2.13;;;12.40;99.90;;;11.64;100.00;101328.19;5074126;23;20016;-74
2022/09/25 00:34:03;;;;;;;4.97;2.22;;;12.40;99.90;;;11.59;100.00;101319.88;5099783;23;20319;-73
2022/09/25 00:36:07;;;;;;;3.90;2.17;;;12.40;99.90;;;11.57;100.00;101320.03;5074016;23;20327;-73
2022/09/25 00:38:08;;;;;;;4.50;2.20;;;12.40;99.90;;;11.57;100.00;101327.13;5073841;23;20476;-74
2022/09/25 00:40:09;;;;;;;3.67;2.00;;;12.40;99.90;;;11.58;100.00;101326.16;5074324;23;20001;-74
2022/09/25 00:42:13;;;;;;;4.05;2.10;;;12.40;99.90;;;11.59;100.00;101320.72;5073862;23;20006;-74
2022/09/25 00:44:56;;;;;;;3.97;2.25;;;12.40;99.90;;;11.58;100.00;101323.50;5099376;23;20025;-73
2022/09/25 00:46:57;;;;;;;5.28;2.10;;;12.40;99.90;;;11.56;100.00;101320.16;5073446;23;20038;-74
2022/09/25 00:49:23;;;;;;;4.63;2.00;;;12.40;99.90;;;11.57;100.00;101324.47;5073776;23;20490;-74
2022/09/25 00:51:51;;;;;;;5.80;1.83;;;12.40;99.90;;;11.56;100.00;101314.88;5092447;23;20088;-74
2022/09/25 00:53:52;;;;;;;4.05;1.88;;;12.40;99.90;;;11.56;100.00;101320.16;5060238;23;20065;-74
2022/09/25 00:55:54;;;;;;;3.45;2.08;;;12.40;99.90;;;11.56;100.00;101326.28;5073719;23;20002;-74
2022/09/25 00:57:56;;;;;;;2.60;1.70;;;12.40;99.90;;;11.58;100.00;101323.50;5073874;23;20343;-74
2022/09/25 01:00:06;;;;;;;3.03;1.95;;;12.40;99.90;;;11.54;100.00;101317.69;5073507;23;20006;-74
2022/09/25 01:02:12;;;;;;;6.88;2.60;;;12.30;99.90;;;11.53;100.00;101310.72;5050226;23;20453;-74
2022/09/25 01:04:16;;;;;;;3.50;2.17;;;12.30;99.90;;;11.54;100.00;101312.41;5074241;23;20432;-73
2022/09/25 01:06:18;;;;;;;3.90;1.75;;;12.30;99.90;;;11.52;100.00;101314.38;5074036;23;20089;-74
2022/09/25 01:08:25;;;;;;;5.90;1.80;;;12.30;99.90;;;11.51;100.00;101304.78;5073868;23;20077;-74
2022/09/25 01:10:26;;;;;;;4.90;1.48;;;12.40;99.90;;;11.57;100.00;101305.97;5073733;23;20006;-74
2022/09/25 01:12:27;;;;;;;4.03;1.88;;;12.30;99.90;;;11.57;100.00;101311.28;5099652;23;20454;-74
2022/09/25 01:14:28;;;;;;;4.50;2.03;;;12.40;99.90;;;11.57;100.00;101309.47;5072988;23;20006;-74
2022/09/25 01:16:41;;;;;;;5.80;1.52;;;12.40;99.90;;;11.58;100.00;101302.38;5073619;23;20006;-74
2022/09/25 01:19:28;;;;;;;2.97;1.48;;;12.40;99.90;;;11.58;100.00;101307.66;5099384;23;20021;-74
2022/09/25 01:21:51;;;;;;;2.72;1.60;;;12.40;99.90;;;11.57;100.00;101305.97;5009971;23;20020;-74
2022/09/25 01:24:25;;;;;;;2.95;1.80;;;12.40;99.90;;;11.56;100.00;101299.88;5075266;23;20469;-74
2022/09/25 01:27:05;;;;;;;4.13;2.20;;;12.40;99.90;;;11.57;100.00;101306.81;5050076;23;20017;-74
2022/09/25 01:29:38;;;;;;;6.60;1.70;;;12.40;99.90;;;11.57;100.00;101305.97;5072500;23;20010;-73
2022/09/25 01:32:13;;;;;;;3.50;1.40;;;12.40;99.90;;;11.60;100.00;101305.69;5099332;23;20037;-74
2022/09/25 01:34:28;;;;;;;3.80;1.90;;;12.40;99.90;;;11.55;100.00;101303.50;5099201;23;20006;-74
2022/09/25 01:36:38;;;;;;;3.30;1.45;;;12.40;99.90;;;11.61;100.00;101307.34;5049518;23;20010;-74
2022/09/25 01:39:16;;;;;;;5.38;1.60;;;12.40;99.90;;;11.59;100.00;101311.94;5073922;23;20065;-74
2022/09/25 01:41:24;;;;;;;3.90;1.92;;;12.40;99.90;;;11.58;100.00;101307.66;5055423;23;20010;-74
2022/09/25 01:43:41;;;;;;;3.90;1.65;;;12.40;99.90;;;11.59;100.00;101309.31;5074198;23;20446;-74
2022/09/25 01:45:58;;;;;;;3.90;1.95;;;12.40;99.90;;;11.60;100.00;101313.63;5098953;23;20038;-74
2022/09/25 01:48:02;;;;;;;3.35;1.48;;;12.40;99.90;;;11.59;100.00;101311.94;5074348;23;20470;-73
2022/09/25 01:50:13;;;;;;;3.15;1.58;;;12.40;99.90;;;11.60;100.00;101310.97;5073643;23;20018;-74
2022/09/25 01:52:21;;;;;;;3.55;1.80;;;12.40;99.90;;;11.54;100.00;101303.63;5074012;23;20506;-73
2022/09/25 01:54:55;;;;;;;4.70;2.53;;;12.40;99.90;;;11.56;100.00;101304.31;5074341;23;20061;-73
2022/09/25 01:57:12;;;;;;;5.68;2.08;;;12.40;99.90;;;11.55;100.00;101307.97;5064124;23;20085;-73
2022/09/25 01:59:40;;;;;;;3.70;1.85;;;12.40;99.90;;;11.55;100.00;101305.31;5074967;23;20125;-74
2022/09/25 02:01:43;;;;;;;5.50;2.10;;;12.30;99.90;;;11.51;100.00;101306.56;5099119;23;20028;-73
2022/09/25 02:03:56;;;;;;;7.43;3.00;;;12.30;99.90;;;11.51;100.00;101302.13;5073603;23;20013;-73
2022/09/25 02:06:03;;;;;;;3.65;2.05;;;12.30;99.90;;;11.51;100.00;101299.50;5074302;23;20006;-74
2022/09/25 02:08:12;;;;;;;6.20;2.25;;;12.30;99.90;;;11.50;100.00;101297.81;5099045;23;20088;-74
2022/09/25 02:10:36;;;;;;;5.68;2.40;;;12.30;99.90;;;11.54;100.00;101312.41;5073822;23;20010;-74
2022/09/25 02:12:44;;;;;;;5.60;2.13;;;12.30;99.90;;;11.55;100.00;101302.66;5075568;23;20006;-73
2022/09/25 02:14:53;;;;;;;3.88;2.15;;;12.40;99.90;;;11.59;100.00;101315.41;5073146;23;20009;-73
2022/09/25 02:16:57;;;;;;;2.85;2.15;;;12.40;99.90;;;11.60;100.00;101300.41;5098967;23;20051;-73
2022/09/25 02:21:35;;;;;;;9.93;2.97;;;12.40;99.90;;;11.68;100.00;101300.47;5076692;23;20021;-73
2022/09/25 02:24:02;;;;;;;5.47;2.20;;;12.50;99.90;;;11.68;100.00;101303.13;5098934;23;20315;-73
2022/09/25 02:26:13;;;;;;;4.53;2.63;;;12.50;99.90;;;11.66;100.00;101305.09;5098402;23;20009;-73
2022/09/25 02:28:14;;;;;;;5.03;2.67;;;12.50;99.90;;;11.66;100.00;101299.81;5073947;23;20008;-73
2022/09/25 02:30:16;;;;;;;5.30;2.85;;;12.50;99.90;;;11.64;100.00;101292.03;5098583;23;20029;-73
2022/09/25 02:32:30;;;;;;;6.38;2.22;;;12.50;99.90;;;11.70;100.00;101295.09;5073483;23;20002;-73
2022/09/25 02:34:32;;;;;;;4.63;2.38;;;12.50;99.90;;;11.63;100.00;101293.00;5074105;23;20010;-73
2022/09/25 02:36:34;;;;;;;7.47;2.78;;;12.50;99.90;;;11.62;100.00;101288.69;5072959;23;20013;-73
2022/09/25 02:38:35;;;;;;;5.18;2.45;;;12.50;99.90;;;11.62;100.00;101282.56;5072988;23;20118;-73
2022/09/25 02:41:03;;;;;;;5.95;2.88;;;12.50;99.90;;;11.68;100.00;101299.69;5072891;23;20006;-73
2022/09/25 02:43:29;;;;;;;5.35;2.60;;;12.50;99.90;;;11.66;100.00;101297.16;5073699;23;20006;-73
2022/09/25 02:45:42;;;;;;;3.97;2.25;;;12.40;99.90;;;11.67;100.00;101288.28;5098514;23;20073;-73
2022/09/25 02:48:01;;;;;;;3.22;1.90;;;12.50;99.90;;;11.68;100.00;101294.38;5072779;23;20006;-73
2022/09/25 02:50:28;;;;;;;3.88;2.22;;;12.40;99.90;;;11.61;100.00;101291.50;5098699;23;20012;-73
2022/09/25 02:53:03;;;;;;;4.30;2.00;;;12.40;99.90;;;11.66;100.00;101290.06;5074007;23;20383;-73
2022/09/25 02:55:18;;;;;;;5.33;2.33;;;12.40;99.90;;;11.67;100.00;101304.13;5098689;23;20029;-73
2022/09/25 02:57:28;;;;;;;4.25;2.10;;;12.40;99.90;;;11.64;100.00;101285.94;5073678;23;20032;-73
2022/09/25 02:59:40;;;;;;;5.28;2.45;;;12.40;99.90;;;11.58;100.00;101294.44;5072592;23;20010;-73
2022/09/25 03:01:42;;;;;;;3.13;2.20;;;12.40;99.90;;;11.63;100.00;101298.31;5073496;23;20012;-73
2022/09/25 03:03:51;;;;;;;6.97;3.22;;;12.40;99.90;;;11.65;100.00;101300.78;5098698;23;20086;-73
2022/09/25 03:05:56;;;;;;;4.30;2.53;;;12.50;99.90;;;11.61;100.00;101294.16;5073285;23;20016;-73
2022/09/25 03:10:17;;;;;;;5.32;2.95;;;12.40;99.90;;;11.61;100.00;101312.66;5076372;23;19931;-73
2022/09/25 03:12:18;;;;;;;3.72;2.70;;;12.40;99.90;;;11.58;100.00;101307.66;5072353;23;20013;-73
2022/09/25 03:14:19;;;;;;;5.93;3.35;;;12.40;99.90;;;11.55;100.00;101300.88;5072092;23;20005;-73
2022/09/25 03:16:39;;;;;;;6.55;2.53;;;12.40;99.90;;;11.55;100.00;101300.88;5097257;23;20005;-73
2022/09/25 03:18:41;;;;;;;7.07;3.22;;;12.40;99.90;;;11.59;100.00;101304.84;5073078;23;20056;-73
2022/09/25 03:20:42;;;;;;;5.85;3.15;;;12.40;99.90;;;11.61;100.00;101302.06;5048345;23;20033;-73
2022/09/25 03:22:43;;;;;;;5.72;3.22;;;12.40;99.90;;;11.60;100.00;101305.69;5098763;23;20025;-73
2022/09/25 03:24:43;;;;;;;4.55;2.83;;;12.40;99.90;;;11.57;100.00;101301.53;5098593;23;20013;-72
2022/09/25 03:26:44;;;;;;;4.82;2.90;;;12.40;99.90;;;11.63;100.00;101315.97;5072501;23;20006;-73
2022/09/25 03:28:46;;;;;;;6.30;3.47;;;12.40;99.90;;;11.60;100.00;101310.97;5098642;23;20006;-73
2022/09/25 03:31:06;;;;;;;7.03;3.40;;;12.40;99.90;;;11.56;100.00;101321.00;5098063;23;20056;-73
2022/09/25 03:33:10;;;;;;;6.03;2.92;;;12.40;99.90;;;11.50;100.00;101307.53;5098522;23;20002;-73
2022/09/25 03:35:11;;;;;;;5.15;3.00;;;12.40;99.90;;;11.57;100.00;101322.69;5098347;23;20088;-73
2022/09/25 03:37:12;;;;;;;7.68;3.40;;;12.40;99.90;;;11.55;100.00;101321.16;5048165;23;20014;-73
2022/09/25 03:39:16;;;;;;;4.97;3.33;;;12.40;99.90;;;11.53;100.00;101315.19;5098415;23;20005;-73
2022/09/25 03:41:21;;;;;;;7.78;3.67;;;12.30;99.90;;;11.50;100.00;101316.31;5072764;23;20013;-73
2022/09/25 03:43:22;;;;;;;4.97;2.78;;;12.30;99.90;;;11.51;100.00;101317.16;5072515;23;20006;-73
2022/09/25 03:45:23;;;;;;;5.05;3.53;;;12.30;99.90;;;11.47;100.00;101311.31;5072062;23;20009;-73
2022/09/25 03:47:24;;;;;;;5.10;3.55;;;12.30;99.90;;;11.49;100.00;101319.94;5098250;23;20060;-73
2022/09/25 03:49:25;;;;;;;6.80;3.92;;;12.30;99.90;;;11.47;100.00;101315.75;5098276;23;20002;-73
2022/09/25 03:51:28;;;;;;;7.07;3.50;;;12.20;99.90;;;11.46;100.00;101319.41;5072298;23;20002;-73
2022/09/25 03:53:31;;;;;;;5.78;3.60;;;12.30;99.90;;;11.47;100.00;101324.53;5072491;23;20098;-73
2022/09/25 03:55:32;;;;;;;7.03;4.10;;;12.30;99.90;;;11.48;100.00;101322.72;5098343;23;20072;-73
2022/09/25 03:57:33;;;;;;;7.72;4.15;;;12.30;99.90;;;11.46;100.00;101327.34;5098463;23;20426;-73
2022/09/25 03:59:34;;;;;;;3.85;2.97;;;12.30;99.90;;;11.47;100.00;101321.88;5098195;23;20056;-73
2022/09/25 04:01:35;;;;;;;4.80;3.42;;;12.30;99.90;;;11.47;100.00;101315.75;5072639;23;20013;-73
2022/09/25 04:03:38;;;;;;;9.55;3.63;;;12.20;99.90;;;11.48;100.00;101320.91;5098473;23;20065;-73
2022/09/25 04:05:40;;;;;;;3.67;3.15;;;12.30;99.90;;;11.46;100.00;101314.13;5072311;23;20060;-73
2022/09/25 04:07:41;;;;;;;5.90;3.42;;;12.30;99.90;;;11.50;100.00;101326.03;5096831;23;20080;-73
2022/09/25 04:09:42;;;;;;;7.63;4.25;;;12.30;99.90;;;11.49;100.00;101327.03;5098442;23;20075;-73
2022/09/25 04:11:43;;;;;;;6.38;3.65;;;12.30;99.90;;;11.48;100.00;101325.38;5098252;23;20509;-74
2022/09/25 04:13:45;;;;;;;5.07;3.25;;;12.20;99.90;;;11.49;100.00;101321.75;5098309;23;20002;-73
2022/09/25 04:15:45;;;;;;;4.30;3.90;;;12.30;99.90;;;11.51;100.00;101323.25;5098040;23;20046;-73
2022/09/25 04:17:46;;;;;;;4.93;3.40;;;12.30;99.90;;;11.48;100.00;101320.09;5098249;23;20006;-73
2022/09/25 04:19:48;;;;;;;6.38;4.25;;;12.30;99.90;;;11.51;100.00;101325.06;5098487;23;20012;-73
2022/09/25 04:21:48;;;;;;;4.80;3.28;;;12.30;99.90;;;11.51;100.00;101322.44;5072386;23;20466;-74
2022/09/25 04:26:16;;;;;;;8.70;4.07;;;12.30;99.90;;;11.51;100.00;101325.91;5052615;23;20017;-73
2022/09/25 04:28:17;;;;;;;5.13;3.95;;;12.30;99.90;;;11.52;100.00;101324.09;5072336;23;20006;-74
2022/09/25 04:30:18;;;;;;;7.38;3.50;;;12.30;99.90;;;11.53;100.00;101329.22;5097913;23;20012;-73
2022/09/25 04:34:39;;;;;;;6.07;3.63;;;12.30;99.90;;;11.52;100.00;101327.59;5098017;23;20021;-74
2022/09/25 04:36:40;;;;;;;5.28;3.97;;;12.30;99.90;;;11.53;100.00;101331.88;5047956;23;20006;-73
2022/09/25 04:38:41;;;;;;;7.80;4.75;;;12.30;99.90;;;11.53;100.00;101329.22;5098452;23;20024;-74
2022/09/25 04:40:42;;;;;;;5.75;4.20;;;12.30;99.90;;;11.54;100.00;101332.69;5098185;23;20080;-73
2022/09/25 04:42:43;;;;;;;6.90;3.92;;;12.30;99.90;;;11.53;100.00;101333.66;5098224;23;20025;-74
2022/09/25 04:44:44;;;;;;;6.95;3.90;;;12.30;99.90;;;11.52;100.00;101334.66;5097866;23;20005;-73
2022/09/25 04:46:45;;;;;;;8.20;4.60;;;12.30;99.90;;;11.50;100.00;101326.88;5098051;23;20458;-74
2022/09/25 04:48:46;;;;;;;7.95;4.63;;;12.30;99.90;;;11.56;100.00;101336.84;5072307;23;20002;-73
2022/09/25 04:50:50;;;;;;;6.43;4.32;;;12.30;99.90;;;11.53;100.00;101328.38;5098151;23;20001;-73
2022/09/25 04:52:51;;;;;;;6.22;4.57;;;12.30;99.90;;;11.56;100.00;101336.03;5098026;23;20012;-73
2022/09/25 04:54:52;;;;;;;6.35;4.60;;;12.30;99.90;;;11.54;100.00;101335.34;5098060;23;20081;-73
2022/09/25 04:56:53;;;;;;;11.07;4.93;;;12.30;99.90;;;11.56;100.00;101336.03;5072275;23;20339;-73
2022/09/25 04:58:54;;;;;;;5.68;4.30;;;12.30;99.90;;;11.54;100.00;101333.53;5097982;23;20006;-73
2022/09/25 05:00:55;;;;;;;6.95;4.25;;;12.30;99.90;;;11.53;100.00;101326.59;5098088;23;20338;-73
2022/09/25 05:02:56;;;;;;;8.00;4.50;;;12.30;99.90;;;11.54;100.00;101336.19;5098705;23;20012;-73
2022/09/25 05:04:57;;;;;;;4.95;4.10;;;12.30;99.90;;;11.55;100.00;101334.38;5099531;23;20005;-73
2022/09/25 05:06:57;;;;;;;6.70;4.82;;;12.30;99.90;;;11.54;100.00;101335.34;5099288;23;20012;-73
2022/09/25 05:08:58;;;;;;;6.85;4.82;;;12.30;99.90;;;11.53;100.00;101331.88;5099462;23;20029;-73
2022/09/25 05:10:59;;;;;;;6.72;3.95;;;12.30;99.90;;;11.53;100.00;101336.31;5099380;23;20013;-73
2022/09/25 05:13:03;;;;;;;9.63;4.78;;;12.30;99.90;;;11.53;100.00;101338.97;5073833;23;20013;-73
2022/09/25 05:15:05;;;;;;;5.78;4.10;;;12.30;99.90;;;11.52;100.00;101337.31;5099337;23;20008;-73
2022/09/25 05:17:10;;;;;;;8.23;4.93;;;12.30;99.90;;;11.43;100.00;101328.47;5099463;23;20009;-73
2022/09/25 05:19:11;;;;;;;8.05;4.80;;;12.30;99.90;;;11.52;100.00;101343.44;5099506;23;20076;-73
2022/09/25 05:21:12;;;;;;;7.85;4.47;;;12.30;99.90;;;11.48;100.00;101335.94;5099441;23;20005;-73
2022/09/25 05:23:13;;;;;;;8.13;4.72;;;12.30;99.90;;;11.50;100.00;101336.59;5073686;23;20013;-73
2022/09/25 05:25:14;;;;;;;9.50;5.03;;;12.30;99.90;;;11.52;100.00;101343.44;5073458;23;20005;-73
2022/09/25 05:27:15;;;;;;;6.53;4.55;;;12.30;99.90;;;11.50;100.00;101340.09;5099583;23;20040;-73
2022/09/25 05:29:16;;;;;;;8.88;4.63;;;12.30;99.90;;;11.51;100.00;101348.84;5073163;23;20339;-73
2022/09/25 05:31:17;;;;;;;7.00;4.90;;;12.30;99.90;;;11.52;100.00;101345.25;5099560;23;20110;-73
2022/09/25 05:33:18;;;;;;;6.57;4.53;;;12.30;99.90;;;11.53;100.00;101346.88;5073372;23;20010;-73
2022/09/25 05:35:22;;;;;;;8.40;4.40;;;12.30;99.90;;;11.54;100.00;101345.91;5099062;23;20036;-73
2022/09/25 05:37:23;;;;;;;9.05;4.78;;;12.30;99.90;;;11.51;100.00;101338.28;5049208;23;20006;-73
2022/09/25 05:39:24;;;;;;;7.03;4.38;;;12.30;99.90;;;11.54;100.00;101343.28;5073477;23;20017;-73
2022/09/25 05:41:25;;;;;;;8.68;4.63;;;12.30;99.90;;;11.54;100.00;101338.00;5073253;23;20006;-73
2022/09/25 05:43:26;;;;;;;9.77;4.35;;;12.30;99.90;;;11.55;100.00;101339.66;5099243;23;20009;-73
2022/09/25 05:45:27;;;;;;;7.72;4.22;;;12.30;99.90;;;11.57;100.00;101340.34;5098818;23;20423;-73
2022/09/25 05:47:28;;;;;;;5.57;4.22;;;12.40;99.90;;;11.53;100.00;101334.50;5099127;23;20422;-73
2022/09/25 05:49:29;;;;;;;7.03;4.20;;;12.30;99.90;;;11.55;100.00;101337.84;5049217;23;20363;-73
2022/09/25 05:51:31;;;;;;;8.48;4.43;;;12.40;99.90;;;11.57;100.00;101338.53;5098932;23;20013;-73
2022/09/25 05:53:32;;;;;;;9.48;4.20;;;12.40;99.90;;;11.60;100.00;101340.03;5073301;23;20022;-73
2022/09/25 05:55:33;;;;;;;6.95;4.00;;;12.40;99.90;;;11.59;100.00;101335.72;5049135;23;20010;-73
2022/09/25 05:57:35;;;;;;;8.23;3.97;;;12.40;99.90;;;11.61;100.00;101341.72;5073269;23;20010;-73
2022/09/25 05:59:36;;;;;;;8.23;3.45;;;12.40;99.90;;;11.64;100.00;101338.78;5098831;23;20037;-73
2022/09/25 06:01:37;;;;;;;10.98;4.30;;;12.40;99.90;;;11.64;100.00;101342.25;5099301;23;20009;-73
2022/09/25 06:03:38;;;;;;;8.10;3.47;;;12.40;99.90;;;11.64;100.00;101346.69;5098781;23;20430;-73
2022/09/25 06:05:39;;;;;;;4.53;3.42;;;12.40;99.90;;;11.65;100.00;101348.34;5099014;23;20076;-73
2022/09/25 06:07:40;;;;;;;7.10;3.95;;;12.40;99.90;;;11.65;100.00;101351.00;5049056;23;20045;-73
2022/09/25 06:09:41;;;;;;;6.78;3.45;;;12.50;99.90;;;11.50;100.00;101326.03;5099083;23;20002;-73
2022/09/25 06:11:46;;;;;;;8.13;3.65;;;12.50;99.90;;;11.62;100.00;101351.28;5099077;23;20006;-73
2022/09/25 06:13:49;;;;;;;8.55;4.03;;;12.40;99.90;;;11.68;100.00;101350.69;5098989;23;20005;-73
2022/09/25 06:15:51;;;;;;;7.50;4.40;;;12.50;99.90;;;11.70;100.00;101355.88;5072893;23;20362;-73
2022/09/25 06:17:53;;;;;;;8.40;3.50;;;12.50;99.90;;;11.68;100.00;101353.34;5073139;23;20537;-73
2022/09/25 06:19:53;;;;;;;9.02;4.07;;;12.50;99.90;;;11.72;100.00;101357.38;5049069;23;20011;-73
2022/09/25 06:21:56;;;;;;;9.95;3.60;;;12.50;99.90;;;11.71;100.00;101361.00;5098912;23;20012;-73
2022/09/25 06:23:57;;;;;;;6.18;3.80;;;12.50;99.90;;;11.72;100.00;101361.84;5073109;23;20056;-73
2022/09/25 06:26:06;;;;;;;6.85;3.90;;;12.50;99.90;;;11.72;100.00;101362.66;5073032;23;20010;-73
2022/09/25 06:28:08;;;;;;;9.32;4.05;;;12.50;99.90;;;11.78;100.00;101366.53;5073163;23;20029;-73
2022/09/25 06:30:10;;;;;;;7.57;3.88;;;12.60;99.90;;;11.82;100.00;101374.03;5072725;23;20061;-73
2022/09/25 06:32:11;;;;;;;6.97;3.67;;;12.60;99.90;;;11.83;100.00;101369.56;5098833;23;20378;-73
2022/09/25 06:34:12;;;;;;;5.85;3.35;;;12.60;99.90;;;11.82;100.00;101367.91;5098337;23;20010;-73
2022/09/25 06:36:13;;;;;;;6.47;3.67;;;12.60;99.90;;;11.83;100.00;101367.75;5073068;23;20010;-74
2022/09/25 06:38:15;;;;;;;7.43;3.35;;;12.60;99.90;;;11.83;100.00;101365.09;5073009;23;20009;-74
2022/09/25 06:40:18;;;;;;;7.13;3.53;;;12.60;99.90;;;11.85;100.00;101368.44;5098864;23;20068;-73
2022/09/25 06:42:18;;;;;;;8.60;3.70;;;12.60;99.90;;;11.87;100.00;101369.13;5098830;23;20426;-73
2022/09/25 06:44:21;;;;;;;11.07;3.40;;;12.70;99.90;;;11.92;100.00;101373.94;5072861;23;20015;-73
2022/09/25 06:46:22;;;;;;;8.48;3.78;;;12.70;99.90;;;11.92;100.00;101358.09;5098654;23;20013;-74
2022/09/25 06:48:23;;;;;;;4.97;3.33;;;12.70;99.90;;;11.97;100.00;101369.91;5098809;23;20005;-73
2022/09/25 06:50:30;;;;;;;7.13;3.05;;;12.80;99.90;;;12.02;100.00;101374.72;5098819;23;20012;-73
2022/09/25 06:52:31;;;;;;;13.80;4.05;;;12.70;99.90;;;12.03;100.00;101371.09;5098741;23;20001;-73
2022/09/25 06:54:32;;;;;;;4.97;3.30;;;12.80;99.90;;;12.08;100.00;101376.78;5098692;23;20012;-73
2022/09/25 06:56:33;;;;;;;6.70;3.60;;;12.80;99.90;;;12.11;100.00;101374.66;5098666;23;20009;-73
2022/09/25 06:58:34;;;;;;;6.22;3.17;;;12.90;99.90;;;12.17;100.00;101374.06;5098648;23;20002;-73
2022/09/25 07:00:35;;;;;;;10.45;3.83;;;12.90;99.90;;;12.18;100.00;101370.41;5072384;23;20002;-73
2022/09/25 07:04:56;;;;;;;5.80;3.58;;;13.00;99.90;;;12.22;100.00;101365.66;5098780;23;20040;-73
2022/09/25 07:06:57;;;;;;;6.53;3.17;;;13.00;99.90;;;12.26;100.00;101366.19;5098226;23;20014;-73
2022/09/25 07:08:58;;;;;;;6.03;3.13;;;13.00;99.90;;;12.25;100.00;101370.66;5098723;23;20020;-73
2022/09/25 07:11:00;;;;;;;6.32;3.03;;;13.00;99.90;;;12.29;100.00;101374.66;5072655;23;20002;-73
2022/09/25 07:13:02;;;;;;;6.90;3.50;;;13.00;99.90;;;12.26;100.00;101372.31;5098559;23;20008;-73
2022/09/25 07:15:03;;;;;;;10.13;3.15;;;13.00;99.90;;;12.32;100.00;101369.06;5098064;23;20036;-73
2022/09/25 07:17:04;;;;;;;5.40;3.17;;;13.10;99.90;;;12.38;100.00;101372.91;5072575;23;20017;-73
2022/09/25 07:19:06;;;;;;;5.72;2.90;;;13.10;99.90;;;12.45;100.00;101384.56;5048098;23;20010;-73
2022/09/25 07:21:14;;;;;;;7.63;2.85;;;13.20;99.90;;;12.51;100.00;101376.84;5072757;23;20141;-73
2022/09/25 07:23:17;;;;;;;5.82;2.85;;;13.30;99.90;;;12.62;100.00;101381.06;5098518;23;20033;-73
2022/09/25 07:25:18;;;;;;;6.40;2.65;;;13.30;99.90;;;12.54;100.00;101376.56;5098218;23;20037;-73
2022/09/25 07:27:19;;;;;;;5.72;2.75;;;13.40;99.90;;;12.61;100.00;101382.88;5072340;23;20014;-73
2022/09/25 07:29:19;;;;;;;5.57;2.40;;;13.40;99.90;;;12.62;100.00;101389.00;5098373;23;20013;-73
2022/09/25 07:31:27;;;;;;;7.22;2.25;;;13.50;99.90;;;12.63;100.00;101382.72;5072500;23;20006;-73
2022/09/25 07:33:28;;;;;;;6.32;2.33;;;13.50;99.90;;;12.70;100.00;101381.13;5048656;23;20097;-74
2022/09/25 07:35:28;;;;;;;5.43;2.30;;;13.50;99.90;;;12.64;100.00;101379.91;5096738;23;20013;-73
2022/09/25 07:37:30;;;;;;;4.50;2.10;;;13.50;99.90;;;12.67;100.00;101378.78;5072559;23;20049;-73
2022/09/25 07:39:31;;;;;;;4.72;2.17;;;13.50;99.90;;;12.77;100.00;101383.00;5072530;23;20061;-73
2022/09/25 07:41:33;;;;;;;4.43;1.95;;;13.50;99.90;;;12.93;100.00;101384.91;5074054;23;20010;-73
2022/09/25 07:43:34;;;;;;;3.92;1.83;;;13.60;99.90;;;13.06;100.00;101374.75;5074046;23;20081;-73
2022/09/25 07:45:35;;;;;;;5.20;1.80;;;13.70;99.90;;;13.20;100.00;101376.84;5073779;23;20134;-73
2022/09/25 07:47:36;;;;;;;5.45;1.80;;;13.80;99.90;;;13.29;100.00;101370.59;5072422;23;20013;-74
2022/09/25 07:49:39;;;;;;;7.18;1.67;;;14.00;99.90;;;13.25;100.00;101371.91;5073865;23;20006;-74
2022/09/25 07:51:39;;;;;;;6.20;1.80;;;14.10;99.90;;;13.38;100.00;101378.59;5074159;23;20002;-74
2022/09/25 07:53:41;;;;;;;5.97;1.75;;;14.10;99.90;;;13.43;100.00;101376.28;5072562;23;20061;-74
2022/09/25 07:55:43;;;;;;;5.05;1.50;;;14.20;99.90;;;13.51;100.00;101377.16;5072685;23;20010;-74
2022/09/25 07:57:44;;;;;;;6.68;2.35;;;14.30;99.90;;;13.51;100.00;101376.31;5074096;23;20084;-74
2022/09/25 07:59:46;;;;;;;3.58;1.60;;;14.30;99.90;;;13.60;100.00;101380.66;5073548;23;20006;-74
2022/09/25 08:01:47;;;;;;;6.28;1.58;;;14.40;99.90;;;13.74;100.00;101382.69;5073946;23;20342;-74
2022/09/25 08:03:48;;;;;;;3.65;1.40;;;14.50;99.90;;;13.82;100.00;101382.75;5073933;23;20005;-74
2022/09/25 08:06:12;;;;;;;5.80;1.65;;;14.50;99.90;;;13.84;100.00;101373.63;5073836;23;20013;-74
2022/09/25 08:08:13;;;;;;;5.05;1.90;;;14.60;99.90;;;13.87;100.00;101388.38;5072321;23;20350;-74
2022/09/25 08:10:14;;;;;;;2.97;1.15;;;14.60;99.90;;;13.87;100.00;101375.13;5072677;23;20006;-74
2022/09/25 08:12:14;;;;;;;5.55;2.00;;;14.60;99.90;;;13.86;100.00;101374.28;5073825;23;20002;-73
2022/09/25 08:14:17;;;;;;;7.25;1.40;;;14.60;99.90;;;13.75;100.00;101384.38;5073587;23;20009;-74
2022/09/25 08:16:21;;;;;;;3.58;1.15;;;14.60;99.90;;;13.86;100.00;101387.56;5073997;23;20006;-74
2022/09/25 08:18:22;;;;;;;7.97;1.45;;;14.60;99.90;;;13.92;100.00;101380.75;5072731;23;20001;-74
2022/09/25 08:20:23;;;;;;;5.57;1.83;;;14.60;99.90;;;13.91;100.00;101388.91;5073648;23;20327;-73
2022/09/25 08:22:24;;;;;;;4.40;1.20;;;14.60;99.90;;;14.09;100.00;101390.44;5073437;23;20008;-73
2022/09/25 08:24:24;;;;;;;3.88;1.25;;;14.70;99.90;;;14.30;100.00;101385.50;5072374;23;20008;-74
2022/09/25 08:26:27;;;;;;;4.43;1.23;;;14.90;99.90;;;14.44;100.00;101376.06;5071545;23;20006;-73
2022/09/25 08:28:28;;;;;;;8.20;1.50;;;15.00;99.90;;;14.46;100.00;101375.88;5073770;23;20316;-73
2022/09/25 08:30:29;;;;;;;5.22;1.70;;;15.10;99.90;;;14.58;100.00;101379.88;5047735;23;20030;-73
2022/09/25 08:32:33;;;;;;;5.15;1.75;;;15.20;99.90;;;14.62;100.00;101381.22;5073609;23;20397;-74
2022/09/25 08:34:35;;;;;;;4.38;1.20;;;15.30;99.90;;;14.60;100.00;101392.03;5072167;23;20014;-73
2022/09/25 08:36:36;;;;;;;4.20;1.42;;;15.30;99.90;;;14.62;100.00;101387.38;5072004;23;20002;-74
2022/09/25 08:38:36;;;;;;;7.35;1.55;;;15.30;99.90;;;14.60;100.00;101392.03;5074773;23;20438;-73
2022/09/25 08:40:50;;;;;;;5.70;1.65;;;15.20;99.90;;;14.53;100.00;101384.88;5075396;23;20033;-73
2022/09/25 08:42:53;;;;;;;5.90;1.98;;;15.20;99.90;;;14.43;100.00;101387.69;5075373;23;20002;-73
2022/09/25 08:50:00;;;;;;;4.18;1.48;;;15.20;99.90;;;14.64;100.00;101395.97;5073928;23;20021;-74
2022/09/25 08:52:07;;;;;;;8.63;2.35;;;15.30;99.90;;;14.49;100.00;101396.81;5074091;23;20029;-74